createdAt,value
2022-08-17T00:29:06.581Z,0
2022-08-17T00:29:46.799Z,0
2022-08-17T00:30:27.202Z,0
2022-08-17T00:31:07.699Z,0
2022-08-17T00:31:48.112Z,0
2022-08-17T00:33:10.676Z,0
2022-08-17T00:33:10.769Z,0
2022-08-17T00:33:49.530Z,0
2022-08-17T00:34:30.008Z,0
2022-08-17T00:35:10.478Z,0
2022-08-17T00:35:50.911Z,0
2022-08-17T00:42:35.971Z,0
2022-08-17T00:43:16.577Z,0
2022-08-17T00:43:57.025Z,0
2022-08-17T00:44:37.536Z,0
2022-08-17T00:45:18.283Z,0
2022-08-17T00:45:58.687Z,0
2022-08-17T00:46:39.242Z,0
2022-08-17T00:47:19.730Z,0
2022-08-17T00:48:00.347Z,0
2022-08-17T00:48:40.882Z,0
2022-08-17T00:55:26.460Z,0
2022-08-17T00:56:06.885Z,0
2022-08-17T00:56:47.852Z,0
2022-08-17T00:57:28.876Z,0
2022-08-17T00:58:09.463Z,0
2022-08-17T00:58:50.253Z,0
2022-08-17T00:59:30.809Z,0
2022-08-17T01:00:11.411Z,0
2022-08-17T01:04:56.212Z,0
2022-08-17T01:05:37.562Z,0
2022-08-17T01:06:18.481Z,0
2022-08-17T01:06:59.163Z,0
2022-08-17T01:07:39.754Z,0
2022-08-17T01:08:20.361Z,0
2022-08-17T01:09:00.962Z,0
2022-08-17T01:13:06.339Z,0
2022-08-17T01:13:47.025Z,0
2022-08-17T01:14:27.590Z,0
2022-08-17T01:15:08.210Z,0
2022-08-17T01:15:49.187Z,0
2022-08-17T01:16:29.916Z,0
2022-08-17T01:17:11.156Z,0
2022-08-17T01:22:36.259Z,0
2022-08-17T01:23:20.420Z,0
2022-08-17T01:23:57.481Z,0
2022-08-17T01:25:18.973Z,0
2022-08-17T01:25:59.696Z,0
2022-08-17T01:26:40.300Z,0
2022-08-17T01:27:20.958Z,0
2022-08-17T01:32:46.606Z,0
2022-08-17T01:33:27.111Z,0
2022-08-17T01:34:07.900Z,0
2022-08-17T01:34:50.078Z,0
2022-08-17T01:35:29.683Z,0
2022-08-17T01:36:10.615Z,0
2022-08-17T01:36:51.412Z,0
2022-08-17T01:40:16.053Z,0
2022-08-17T01:40:57.058Z,0
2022-08-17T01:41:37.445Z,0
2022-08-17T01:42:18.194Z,0
2022-08-17T01:42:58.670Z,0
2022-08-17T01:43:39.547Z,0
2022-08-17T01:44:19.856Z,0
2022-08-17T01:45:00.407Z,0
2022-08-17T01:45:40.890Z,0
2022-08-17T01:51:06.535Z,0
2022-08-17T01:51:47.413Z,0
2022-08-17T01:52:28.229Z,0
2022-08-17T01:53:09.180Z,0
2022-08-17T01:53:50.011Z,0
2022-08-17T01:54:31.347Z,0
2022-08-17T01:58:35.910Z,0
2022-08-17T01:59:16.468Z,0
2022-08-17T01:59:56.894Z,0
2022-08-17T02:00:47.806Z,0
2022-08-17T02:01:18.026Z,0
2022-08-17T02:01:58.665Z,0
2022-08-17T02:02:39.341Z,0
2022-08-17T02:03:19.820Z,0
2022-08-17T02:04:01.029Z,0
2022-08-17T02:04:40.801Z,0
2022-08-17T02:10:46.760Z,0
2022-08-17T02:11:26.571Z,0
2022-08-17T02:12:38.632Z,0
2022-08-17T02:12:47.628Z,0
2022-08-17T02:13:28.238Z,0
2022-08-17T02:14:08.831Z,0
2022-08-17T02:14:49.636Z,0
2022-08-17T02:15:30.228Z,0
2022-08-17T02:16:11.200Z,0
2022-08-17T02:20:16.373Z,0
2022-08-17T02:20:56.857Z,0
2022-08-17T02:21:37.525Z,0
2022-08-17T02:22:17.936Z,0
2022-08-17T02:23:39.032Z,0
2022-08-17T02:24:59.033Z,0
2022-08-17T02:25:02.232Z,0
2022-08-17T02:32:27.755Z,0
2022-08-17T02:33:09.331Z,0
2022-08-17T02:33:47.423Z,0
2022-08-17T02:34:27.978Z,0
2022-08-17T02:35:08.576Z,0
2022-08-17T02:35:49.061Z,0
2022-08-17T02:36:29.607Z,0
2022-08-17T02:37:10.076Z,0
2022-08-17T02:37:51.896Z,0
2022-08-17T02:38:31.499Z,0
2022-08-17T02:43:16.023Z,0
2022-08-17T02:43:57.453Z,0
2022-08-17T02:44:40.224Z,0
2022-08-17T02:45:21.622Z,0
2022-08-17T02:48:46.660Z,0
2022-08-17T02:49:27.278Z,0
2022-08-17T02:50:07.937Z,0
2022-08-17T02:50:51.069Z,0
2022-08-17T02:51:31.565Z,0
2022-08-17T02:54:58.525Z,0
2022-08-17T02:55:39.849Z,0
2022-08-17T02:56:20.652Z,0
2022-08-17T02:57:02.295Z,0
2022-08-17T02:59:06.117Z,0
2022-08-17T02:59:49.007Z,0
2022-08-17T03:00:27.119Z,0
2022-08-17T03:01:07.552Z,0
2022-08-17T03:01:48.362Z,0
2022-08-17T03:02:28.811Z,0
2022-08-17T03:03:50.062Z,0
2022-08-17T03:04:30.424Z,0
2022-08-17T03:05:11.047Z,0
2022-08-17T03:07:56.253Z,0
2022-08-17T03:08:36.842Z,0
2022-08-17T03:09:17.616Z,0
2022-08-17T03:09:58.019Z,0
2022-08-17T03:10:38.507Z,0
2022-08-17T03:11:19.898Z,0
2022-08-17T03:12:00.210Z,0
2022-08-17T03:12:40.888Z,0
2022-08-17T03:18:46.204Z,0
2022-08-17T03:19:26.992Z,0
2022-08-17T03:20:07.459Z,0
2022-08-17T03:20:48.013Z,0
2022-08-17T03:21:28.788Z,0
2022-08-17T03:22:19.874Z,0
2022-08-17T03:22:53.175Z,0
2022-08-17T03:26:13.499Z,0
2022-08-17T03:26:51.412Z,0
2022-08-17T03:27:31.931Z,0
2022-08-17T03:28:12.378Z,0
2022-08-17T03:28:52.858Z,0
2022-08-17T03:29:33.348Z,0
2022-08-17T03:30:13.824Z,0
2022-08-17T03:31:36.986Z,0
2022-08-17T03:32:15.312Z,0
2022-08-17T03:32:55.845Z,0
2022-08-17T03:39:40.842Z,0
2022-08-17T03:40:34.675Z,0
2022-08-17T03:41:01.881Z,0
2022-08-17T03:41:42.298Z,0
2022-08-17T03:42:31.209Z,0
2022-08-17T03:43:03.269Z,0
2022-08-17T03:43:43.825Z,0
2022-08-17T03:44:24.334Z,0
2022-08-17T03:45:04.818Z,0
2022-08-17T03:45:45.266Z,0
2022-08-17T03:55:08.707Z,0
2022-08-17T03:55:49.093Z,0
2022-08-17T03:56:29.492Z,0
2022-08-17T03:57:09.980Z,0
2022-08-17T03:57:50.452Z,0
2022-08-17T03:58:31.017Z,0
2022-08-17T03:59:11.449Z,0
2022-08-17T03:59:51.977Z,0
2022-08-17T04:00:32.482Z,0
2022-08-17T04:01:13.071Z,0
2022-08-17T04:01:53.503Z,4
2022-08-17T04:08:38.381Z,0
2022-08-17T04:09:18.883Z,4
2022-08-17T04:09:59.455Z,0
2022-08-17T04:10:41.322Z,4
2022-08-17T04:11:20.429Z,0
2022-08-17T04:12:01.236Z,4
2022-08-17T04:12:41.442Z,4
2022-08-17T04:13:24.117Z,4
2022-08-17T04:14:02.389Z,4
2022-08-17T04:14:52.501Z,4
2022-08-17T04:22:29.924Z,12
2022-08-17T04:23:05.800Z,12
2022-08-17T04:23:46.244Z,8
2022-08-17T04:24:26.775Z,12
2022-08-17T04:25:07.335Z,12
2022-08-17T04:25:47.781Z,12
2022-08-17T04:26:52.386Z,12
2022-08-17T04:27:08.808Z,16
2022-08-17T04:30:22.550Z,20
2022-08-17T04:31:03.062Z,16
2022-08-17T04:31:43.530Z,20
2022-08-17T04:32:58.805Z,20
2022-08-17T04:33:07.002Z,20
2022-08-17T04:33:45.002Z,20
2022-08-17T04:34:25.499Z,20
2022-08-17T04:35:05.959Z,20
2022-08-17T04:35:46.466Z,24
2022-08-17T04:36:27.006Z,24
2022-08-17T04:37:07.492Z,28
2022-08-17T04:43:52.541Z,36
2022-08-17T04:44:37.303Z,40
2022-08-17T04:45:13.493Z,40
2022-08-17T04:45:55.744Z,44
2022-08-17T04:46:34.545Z,44
2022-08-17T04:47:15.021Z,48
2022-08-17T04:47:55.585Z,44
2022-08-17T04:49:16.659Z,44
2022-08-17T04:49:57.207Z,48
2022-08-17T04:54:42.497Z,52
2022-08-17T04:55:23.003Z,56
2022-08-17T04:56:03.562Z,60
2022-08-17T04:56:44.266Z,60
2022-08-17T04:57:24.829Z,68
2022-08-17T04:58:05.341Z,68
2022-08-17T04:59:26.346Z,80
2022-08-17T05:00:06.946Z,88
2022-08-17T05:00:47.585Z,92
2022-08-17T05:10:45.110Z,312
2022-08-17T05:11:25.256Z,308
2022-08-17T05:12:05.675Z,304
2022-08-17T05:12:46.291Z,292
2022-08-17T05:13:26.756Z,276
2022-08-17T05:14:07.204Z,264
2022-08-17T05:14:47.694Z,252
2022-08-17T05:15:28.298Z,248
2022-08-17T05:16:08.737Z,248
2022-08-17T05:16:49.414Z,252
2022-08-17T05:20:55.665Z,272
2022-08-17T05:22:22.844Z,288
2022-08-17T05:23:44.243Z,288
2022-08-17T05:27:01.427Z,320
2022-08-17T05:27:39.886Z,328
2022-08-17T05:28:23.494Z,340
2022-08-17T05:29:02.392Z,344
2022-08-17T05:29:42.950Z,356
2022-08-17T05:33:08.398Z,348
2022-08-17T05:33:49.582Z,356
2022-08-17T05:37:29.789Z,472
2022-08-17T05:38:08.313Z,496
2022-08-17T05:38:48.806Z,524
2022-08-17T05:40:09.855Z,568
2022-08-17T05:40:50.303Z,604
2022-08-17T05:41:30.860Z,636
2022-08-17T05:42:11.429Z,660
2022-08-17T05:42:51.983Z,672
2022-08-17T05:43:32.395Z,676
2022-08-17T05:44:13.003Z,680
2022-08-17T05:44:53.491Z,684
2022-08-17T05:47:21.401Z,648
2022-08-17T05:48:01.971Z,628
2022-08-17T05:48:42.495Z,608
2022-08-17T05:49:23.044Z,588
2022-08-17T05:50:03.471Z,592
2022-08-17T05:50:43.925Z,564
2022-08-17T05:51:24.449Z,540
2022-08-17T05:52:04.944Z,520
2022-08-17T05:52:45.479Z,500
2022-08-17T05:53:25.964Z,488
2022-08-17T06:32:10.099Z,1320
2022-08-17T06:32:53.791Z,1372
2022-08-17T06:33:34.602Z,1424
2022-08-17T06:34:15.946Z,1492
2022-08-17T06:34:57.497Z,1532
2022-08-17T06:35:38.121Z,1504
2022-08-17T06:36:19.364Z,1504
2022-08-17T06:37:01.012Z,1500
2022-08-17T06:37:41.714Z,1460
2022-08-17T06:42:54.488Z,1124
2022-08-17T06:43:06.287Z,1108
2022-08-17T06:43:47.989Z,1108
2022-08-17T06:44:41.977Z,1132
2022-08-17T06:48:12.950Z,1408
2022-08-17T06:48:53.495Z,1496
2022-08-17T06:49:33.988Z,1512
2022-08-17T06:50:14.809Z,1472
2022-08-17T06:50:55.341Z,1444
2022-08-17T06:51:35.840Z,1416
2022-08-17T06:52:37.185Z,1380
2022-08-17T06:57:01.880Z,1400
2022-08-17T06:57:42.516Z,1448
2022-08-17T06:58:23.106Z,1568
2022-08-17T06:59:03.856Z,1984
2022-08-17T07:02:19.166Z,2100
2022-08-17T07:02:59.547Z,2104
2022-08-17T07:03:41.097Z,2272
2022-08-17T07:04:21.665Z,2896
2022-08-17T07:05:02.233Z,2976
2022-08-17T07:05:42.765Z,2428
2022-08-17T07:06:23.231Z,2076
2022-08-17T07:07:03.920Z,2088
2022-08-17T07:13:09.067Z,1344
2022-08-17T07:13:51.113Z,1328
2022-08-17T07:14:32.297Z,1268
2022-08-17T07:15:12.421Z,1232
2022-08-17T07:15:56.885Z,1196
2022-08-17T07:16:33.938Z,1164
2022-08-17T07:20:38.873Z,1036
2022-08-17T07:21:22.912Z,1028
2022-08-17T07:22:00.039Z,1016
2022-08-17T07:22:50.423Z,996
2022-08-17T07:23:21.394Z,980
2022-08-17T07:24:02.086Z,968
2022-08-17T07:24:42.578Z,956
2022-08-17T07:25:23.445Z,952
2022-08-17T07:26:03.929Z,948
2022-08-17T07:30:10.768Z,940
2022-08-17T07:30:49.136Z,936
2022-08-17T07:31:29.835Z,928
2022-08-17T07:32:51.070Z,920
2022-08-17T07:33:31.649Z,912
2022-08-17T07:34:12.205Z,908
2022-08-17T07:34:52.646Z,912
2022-08-17T07:35:37.988Z,920
2022-08-17T07:38:48.060Z,924
2022-08-17T07:39:28.668Z,928
2022-08-17T07:40:15.679Z,928
2022-08-17T07:40:49.634Z,932
2022-08-17T07:41:52.977Z,928
2022-08-17T07:42:10.769Z,920
2022-08-17T07:42:51.287Z,916
2022-08-17T07:43:31.721Z,908
2022-08-17T07:44:12.208Z,900
2022-08-17T07:44:52.883Z,884
2022-08-17T07:49:14.278Z,824
2022-08-17T07:49:55.705Z,812
2022-08-17T07:50:38.546Z,804
2022-08-17T07:51:19.792Z,796
2022-08-17T07:52:48.598Z,792
2022-08-17T07:53:24.567Z,792
2022-08-17T07:54:14.283Z,792
2022-08-17T07:56:11.683Z,764
2022-08-17T07:56:53.878Z,740
2022-08-17T07:57:35.298Z,720
2022-08-17T07:58:16.295Z,688
2022-08-17T08:01:02.887Z,604
2022-08-17T08:04:37.527Z,600
2022-08-17T08:05:02.736Z,592
2022-08-17T08:05:49.601Z,576
2022-08-17T08:06:24.191Z,564
2022-08-17T08:07:04.771Z,556
2022-08-17T08:07:49.101Z,544
2022-08-17T08:11:55.380Z,496
2022-08-17T08:12:37.276Z,488
2022-08-17T08:16:41.952Z,360
2022-08-17T08:17:22.410Z,348
2022-08-17T08:18:04.652Z,340
2022-08-17T08:18:53.936Z,336
2022-08-17T08:19:25.860Z,328
2022-08-17T08:20:35.127Z,320
2022-08-17T08:20:51.577Z,312
2022-08-17T08:26:52.194Z,288
2022-08-17T08:27:32.779Z,296
2022-08-17T08:28:56.111Z,312
2022-08-17T08:29:37.241Z,328
2022-08-17T08:33:02.645Z,464
2022-08-17T08:33:44.578Z,484
2022-08-17T08:34:44.799Z,504
2022-08-17T08:35:08.051Z,528
2022-08-17T08:35:49.058Z,548
2022-08-17T08:37:22.792Z,548
2022-08-17T08:42:28.006Z,540
2022-08-17T08:43:08.868Z,556
2022-08-17T08:43:52.958Z,588
2022-08-17T08:44:59.288Z,604
2022-08-17T08:47:57.952Z,616
2022-08-17T08:48:53.542Z,608
2022-08-17T08:49:26.250Z,592
2022-08-17T08:50:04.237Z,580
2022-08-17T08:53:28.240Z,592
2022-08-17T08:54:09.310Z,600
2022-08-17T08:54:50.395Z,612
2022-08-17T08:55:31.455Z,620
2022-08-17T08:58:57.615Z,776
2022-08-17T08:59:41.947Z,828
2022-08-17T09:00:20.497Z,880
2022-08-17T09:01:01.523Z,936
2022-08-17T09:04:27.821Z,852
2022-08-17T09:05:14.150Z,828
2022-08-17T09:08:27.495Z,728
2022-08-17T09:09:08.680Z,712
2022-08-17T09:09:50.744Z,668
2022-08-17T09:10:32.424Z,612
2022-08-17T09:12:01.739Z,520
2022-08-17T09:12:37.276Z,524
2022-08-17T09:13:18.314Z,552
2022-08-17T09:16:33.076Z,672
2022-08-17T09:17:13.913Z,656
2022-08-17T09:18:08.802Z,628
2022-08-17T09:18:59.709Z,584
2022-08-17T09:19:17.488Z,548
2022-08-17T09:22:43.096Z,456
2022-08-17T09:23:24.180Z,432
2022-08-17T09:24:05.263Z,416
2022-08-17T09:24:46.472Z,408
2022-08-17T09:25:27.650Z,412
2022-08-17T09:28:12.473Z,496
2022-08-17T09:28:53.535Z,524
2022-08-17T09:29:34.776Z,552
2022-08-17T09:30:15.952Z,576
2022-08-17T09:30:57.101Z,596
2022-08-17T09:33:42.256Z,444
2022-08-17T09:34:24.962Z,404
2022-08-17T09:35:04.351Z,380
2022-08-17T09:35:45.837Z,364
2022-08-17T09:36:27.040Z,348
2022-08-17T09:42:01.510Z,284
2022-08-17T09:44:30.070Z,260
2022-08-17T09:45:11.719Z,272
2022-08-17T09:45:52.415Z,276
2022-08-17T09:46:32.964Z,288
2022-08-17T09:48:36.963Z,260
2022-08-17T09:49:25.104Z,256
2022-08-17T09:50:03.233Z,256
2022-08-17T09:52:16.447Z,252
2022-08-17T09:52:57.050Z,248
2022-08-17T09:53:37.489Z,240
2022-08-17T09:54:37.882Z,244
2022-08-17T09:54:58.609Z,252
2022-08-17T09:55:39.169Z,264
2022-08-17T09:56:19.855Z,276
2022-08-17T09:57:18.364Z,288
2022-08-17T09:57:42.237Z,296
2022-08-17T10:01:06.745Z,360
2022-08-17T10:01:47.114Z,344
2022-08-17T10:02:30.671Z,316
2022-08-17T10:03:11.385Z,300
2022-08-17T10:06:00.576Z,348
2022-08-17T10:08:06.506Z,432
2022-08-17T10:08:47.458Z,456
2022-08-17T10:09:45.842Z,484
2022-08-17T10:10:26.047Z,524
2022-08-17T10:11:07.309Z,552
2022-08-17T10:11:50.348Z,580
2022-08-17T10:12:30.434Z,604
2022-08-17T10:13:11.101Z,628
2022-08-17T10:19:16.250Z,952
2022-08-17T10:19:56.739Z,1032
2022-08-17T10:20:37.288Z,1124
2022-08-17T10:21:17.829Z,1228
2022-08-17T10:22:00.570Z,1340
2022-08-17T10:22:38.967Z,1432
2022-08-17T10:23:21.215Z,1512
2022-08-17T10:28:06.308Z,1564
2022-08-17T10:28:46.814Z,1580
2022-08-17T10:29:28.908Z,1536
2022-08-17T10:30:08.240Z,1448
2022-08-17T10:30:48.902Z,1336
2022-08-17T10:31:36.656Z,1256
2022-08-17T10:35:09.598Z,1368
2022-08-17T10:35:50.503Z,1392
2022-08-17T10:36:31.209Z,1408
2022-08-17T10:37:12.212Z,1432
2022-08-17T10:37:52.953Z,1424
2022-08-17T10:38:33.299Z,1388
2022-08-17T10:39:13.807Z,1372
2022-08-17T10:43:25.532Z,1644
2022-08-17T10:44:37.717Z,1700
2022-08-17T10:47:19.605Z,1916
2022-08-17T10:48:05.012Z,2032
2022-08-17T10:48:41.560Z,2200
2022-08-17T10:49:22.017Z,2360
2022-08-17T10:50:02.551Z,2468
2022-08-17T10:50:46.074Z,2544
2022-08-17T10:51:30.565Z,2632
2022-08-17T10:52:11.401Z,2656
2022-08-17T10:52:51.928Z,2692
2022-08-17T10:53:32.374Z,2788
2022-08-17T10:54:12.887Z,2696
2022-08-17T10:54:57.980Z,2752
2022-08-17T10:58:19.827Z,2132
2022-08-17T10:59:00.188Z,2252
2022-08-17T10:59:40.798Z,2080
2022-08-17T11:00:27.081Z,2124
2022-08-17T11:01:02.900Z,2144
2022-08-17T11:01:43.433Z,2204
2022-08-17T11:02:24.572Z,2312
2022-08-17T11:03:04.647Z,2316
2022-08-17T11:08:29.246Z,2248
2022-08-17T11:09:10.045Z,2140
2022-08-17T11:09:50.282Z,2152
2022-08-17T11:10:30.832Z,1956
2022-08-17T11:11:11.406Z,2144
2022-08-17T11:17:29.270Z,1568
2022-08-17T11:18:09.825Z,1556
2022-08-17T11:18:50.423Z,1568
2022-08-17T11:19:30.792Z,1556
2022-08-17T11:20:11.323Z,1552
2022-08-17T11:20:51.947Z,1560
2022-08-17T11:21:32.452Z,1552
2022-08-17T11:22:13.092Z,1536
2022-08-17T11:22:53.595Z,1548
2022-08-17T11:25:22.068Z,1612
2022-08-17T11:26:02.423Z,1628
2022-08-17T11:26:42.951Z,1652
2022-08-17T11:27:24.794Z,1684
2022-08-17T11:28:05.695Z,1720
2022-08-17T11:28:46.076Z,1772
2022-08-17T11:32:53.094Z,2048
2022-08-17T11:33:32.881Z,2056
2022-08-17T11:34:13.496Z,2032
2022-08-17T11:34:54.065Z,2012
2022-08-17T11:35:34.563Z,2000
2022-08-17T11:36:15.152Z,2008
2022-08-17T11:36:55.708Z,2036
2022-08-17T11:37:36.526Z,2080
2022-08-17T11:41:35.900Z,2392
2022-08-17T11:42:17.421Z,2432
2022-08-17T11:42:57.903Z,2460
2022-08-17T11:43:42.699Z,2472
2022-08-17T11:44:18.907Z,2448
2022-08-17T11:44:59.590Z,2448
2022-08-17T11:45:40.054Z,2424
2022-08-17T11:47:57.149Z,2424
2022-08-17T11:48:28.734Z,2424
2022-08-17T11:49:07.787Z,2408
2022-08-17T11:49:48.511Z,2364
2022-08-17T11:50:28.942Z,2344
2022-08-17T11:51:09.587Z,2348
2022-08-17T11:51:50.169Z,2368
2022-08-17T11:52:30.938Z,2376
2022-08-17T12:32:31.228Z,1272
2022-08-17T12:33:11.727Z,1296
2022-08-17T12:33:52.801Z,1364
2022-08-17T12:34:34.063Z,1368
2022-08-17T12:35:14.552Z,1380
2022-08-17T12:35:58.881Z,1364
2022-08-17T12:36:35.514Z,1392
2022-08-17T12:37:16.691Z,1432
2022-08-17T12:41:21.046Z,1356
2022-08-17T12:42:02.732Z,1304
2022-08-17T12:42:42.278Z,1252
2022-08-17T12:43:23.353Z,1228
2022-08-17T12:44:03.750Z,1240
2022-08-17T12:44:50.007Z,1304
2022-08-17T12:49:31.090Z,2304
2022-08-17T12:50:28.384Z,2336
2022-08-17T12:50:52.267Z,2312
2022-08-17T12:51:32.876Z,2088
2022-08-17T12:52:13.442Z,1976
2022-08-17T12:52:56.453Z,1984
2022-08-17T12:53:34.768Z,1968
2022-08-17T12:54:15.292Z,1968
2022-08-17T12:54:55.844Z,1920
2022-08-17T13:01:59.694Z,1200
2022-08-17T13:05:20.729Z,1520
2022-08-17T13:06:01.483Z,1496
2022-08-17T13:06:42.691Z,1452
2022-08-17T13:07:24.118Z,1324
2022-08-17T13:11:30.761Z,1156
2022-08-17T13:12:11.976Z,1384
2022-08-17T13:12:53.642Z,1376
2022-08-17T13:13:34.602Z,1368
2022-08-17T13:16:19.517Z,1372
2022-08-17T13:17:00.735Z,1324
2022-08-17T13:17:41.736Z,1240
2022-08-17T13:18:22.639Z,1292
2022-08-17T13:19:04.690Z,1392
2022-08-17T13:22:31.183Z,1388
2022-08-17T13:23:12.336Z,1408
2022-08-17T13:23:53.638Z,1376
2022-08-17T13:24:37.772Z,1232
2022-08-17T13:25:15.585Z,1080
2022-08-17T13:29:38.209Z,1152
2022-08-17T13:30:19.346Z,1048
2022-08-17T13:31:01.350Z,1132
2022-08-17T13:31:49.235Z,996
2022-08-17T13:33:08.960Z,992
2022-08-17T13:33:56.996Z,996
2022-08-17T13:34:38.137Z,1032
2022-08-17T13:35:28.461Z,1108
2022-08-17T13:36:00.012Z,1212
2022-08-17T13:36:42.140Z,1356
2022-08-17T13:38:47.054Z,1548
2022-08-17T13:39:28.379Z,1540
2022-08-17T13:40:09.639Z,1512
2022-08-17T13:40:50.620Z,1484
2022-08-17T13:41:32.747Z,1528
2022-08-17T13:44:17.866Z,1632
2022-08-17T13:44:58.880Z,1660
2022-08-17T13:45:39.868Z,1664
2022-08-17T13:47:55.248Z,1620
2022-08-17T13:48:35.123Z,1640
2022-08-17T13:49:16.487Z,1640
2022-08-17T13:49:56.973Z,1636
2022-08-17T13:50:37.804Z,1576
2022-08-17T13:51:18.267Z,1564
2022-08-17T13:51:58.755Z,1600
2022-08-17T13:52:39.232Z,1672
2022-08-17T13:59:34.043Z,1276
2022-08-17T14:01:38.275Z,1204
2022-08-17T14:02:18.943Z,1204
2022-08-17T14:02:59.420Z,1200
2022-08-17T14:03:39.938Z,1228
2022-08-17T14:04:20.493Z,1256
2022-08-17T14:05:01.007Z,1244
2022-08-17T14:05:41.552Z,1280
2022-08-17T14:06:51.651Z,1324
2022-08-17T14:07:02.585Z,1300
2022-08-17T14:13:07.720Z,1096
2022-08-17T14:13:48.201Z,1092
2022-08-17T14:14:28.591Z,1100
2022-08-17T14:15:09.102Z,1124
2022-08-17T14:15:53.696Z,1132
2022-08-17T14:16:30.148Z,1120
2022-08-17T14:17:10.664Z,1100
2022-08-17T14:17:51.594Z,1092
2022-08-17T14:18:42.010Z,1104
2022-08-17T14:19:12.176Z,1088
2022-08-17T14:19:52.661Z,1084
2022-08-17T14:23:57.805Z,1112
2022-08-17T14:24:42.578Z,1152
2022-08-17T14:25:18.792Z,1208
2022-08-17T14:25:59.478Z,1284
2022-08-17T14:26:39.989Z,1332
2022-08-17T14:27:20.461Z,1360
2022-08-17T14:28:01.312Z,1376
2022-08-17T14:28:43.076Z,1408
2022-08-17T14:29:21.907Z,1492
2022-08-17T14:30:02.367Z,1560
2022-08-17T14:30:42.882Z,1568
2022-08-17T14:36:48.504Z,1740
2022-08-17T14:37:28.093Z,1700
2022-08-17T14:38:08.693Z,1616
2022-08-17T14:38:49.648Z,1564
2022-08-17T14:39:30.194Z,1632
2022-08-17T14:40:10.718Z,1520
2022-08-17T14:40:51.099Z,1660
2022-08-17T14:41:31.574Z,1700
2022-08-17T14:46:17.952Z,1580
2022-08-17T14:46:58.620Z,1568
2022-08-17T14:47:39.068Z,1564
2022-08-17T14:48:19.599Z,1548
2022-08-17T14:49:00.131Z,1524
2022-08-17T14:49:40.665Z,1520
2022-08-17T14:50:21.215Z,1500
2022-08-17T14:51:01.718Z,1480
2022-08-17T14:51:43.542Z,1468
2022-08-17T14:52:22.708Z,1464
2022-08-17T14:57:23.203Z,1352
2022-08-17T14:57:48.777Z,1404
2022-08-17T14:58:29.316Z,1420
2022-08-17T14:59:09.837Z,1436
2022-08-17T14:59:54.566Z,1396
2022-08-17T15:00:31.018Z,1368
2022-08-17T15:01:11.662Z,1324
2022-08-17T15:01:51.997Z,1284
2022-08-17T15:02:32.482Z,1260
2022-08-17T15:03:14.126Z,1236
2022-08-17T15:07:17.847Z,1084
2022-08-17T15:07:58.291Z,1068
2022-08-17T15:08:38.790Z,1056
2022-08-17T15:09:19.325Z,1048
2022-08-17T15:10:00.565Z,1036
2022-08-17T15:10:40.415Z,1028
2022-08-17T15:11:20.883Z,1020
2022-08-17T15:12:01.440Z,1012
2022-08-17T15:12:41.926Z,1004
2022-08-17T15:13:22.394Z,1008
2022-08-17T15:14:02.879Z,1020
2022-08-17T15:18:07.762Z,964
2022-08-17T15:18:48.268Z,944
2022-08-17T15:19:28.712Z,952
2022-08-17T15:20:12.756Z,948
2022-08-17T15:20:49.743Z,948
2022-08-17T15:21:30.320Z,936
2022-08-17T15:22:10.788Z,932
2022-08-17T15:22:51.260Z,924
2022-08-17T15:23:31.788Z,924
2022-08-17T15:24:12.269Z,916
2022-08-17T15:24:52.844Z,916
2022-08-17T15:30:18.056Z,828
2022-08-17T15:30:58.492Z,844
2022-08-17T15:31:39.007Z,856
2022-08-17T15:32:19.659Z,856
2022-08-17T15:33:00.514Z,868
2022-08-17T15:33:40.629Z,872
2022-08-17T15:35:02.336Z,872
2022-08-17T15:35:42.854Z,868
2022-08-17T15:41:57.968Z,836
2022-08-17T15:42:34.468Z,836
2022-08-17T15:47:17.949Z,832
2022-08-17T15:47:58.495Z,832
2022-08-17T15:48:39.035Z,828
2022-08-17T15:49:19.539Z,828
2022-08-17T15:50:00.449Z,824
2022-08-17T15:50:41.330Z,824
2022-08-17T15:51:21.795Z,820
2022-08-17T15:52:02.282Z,812
2022-08-17T15:59:28.064Z,788
2022-08-17T16:00:08.522Z,792
2022-08-17T16:00:53.281Z,792
2022-08-17T16:01:46.568Z,788
2022-08-17T16:03:01.993Z,788
2022-08-17T16:03:15.748Z,792
2022-08-17T16:03:46.529Z,800
2022-08-17T16:04:26.393Z,800
2022-08-17T16:04:51.938Z,812
2022-08-17T16:05:32.430Z,836
2022-08-17T16:06:12.882Z,812
2022-08-17T16:12:17.797Z,796
2022-08-17T16:12:58.203Z,784
2022-08-17T16:13:38.685Z,796
2022-08-17T16:14:19.200Z,796
2022-08-17T16:14:59.682Z,788
2022-08-17T16:15:40.204Z,776
2022-08-17T16:16:20.772Z,768
2022-08-17T16:17:01.282Z,764
2022-08-17T16:17:41.759Z,768
2022-08-17T16:18:22.233Z,772
2022-08-17T16:19:02.709Z,768
2022-08-17T16:25:53.376Z,752
2022-08-17T16:26:28.328Z,756
2022-08-17T16:27:12.552Z,736
2022-08-17T16:30:23.946Z,684
2022-08-17T16:31:03.993Z,744
2022-08-17T16:31:44.412Z,736
2022-08-17T16:32:31.606Z,732
2022-08-17T16:33:06.325Z,724
2022-08-17T16:33:58.532Z,720
2022-08-17T16:34:28.137Z,716
2022-08-17T16:39:53.246Z,700
2022-08-17T16:40:35.670Z,696
2022-08-17T16:41:14.240Z,684
2022-08-17T16:41:54.705Z,684
2022-08-17T16:42:35.292Z,676
2022-08-17T16:43:15.806Z,676
2022-08-17T16:43:56.613Z,676
2022-08-17T16:44:37.126Z,672
2022-08-17T16:45:17.671Z,672
2022-08-17T16:52:03.159Z,656
2022-08-17T16:52:43.642Z,656
2022-08-17T16:53:24.218Z,652
2022-08-17T16:54:04.843Z,648
2022-08-17T16:54:45.310Z,648
2022-08-17T16:55:25.831Z,640
2022-08-17T16:56:06.316Z,640
2022-08-17T16:56:46.830Z,636
2022-08-17T16:57:27.774Z,636
2022-08-17T17:04:12.850Z,616
2022-08-17T17:04:53.345Z,616
2022-08-17T17:05:33.812Z,616
2022-08-17T17:06:14.305Z,608
2022-08-17T17:06:54.821Z,604
2022-08-17T17:07:35.312Z,600
2022-08-17T17:08:15.797Z,600
2022-08-17T17:08:56.359Z,596
2022-08-17T17:09:36.911Z,596
2022-08-17T17:10:17.449Z,592
2022-08-17T17:16:23.049Z,568
2022-08-17T17:17:03.536Z,568
2022-08-17T17:17:45.015Z,564
2022-08-17T17:18:25.555Z,560
2022-08-17T17:19:06.039Z,552
2022-08-17T17:19:46.558Z,552
2022-08-17T17:20:26.989Z,544
2022-08-17T17:21:07.692Z,544
2022-08-17T17:25:13.107Z,532
2022-08-17T17:25:53.601Z,532
2022-08-17T17:26:34.081Z,528
2022-08-17T17:27:14.608Z,524
2022-08-17T17:27:55.815Z,524
2022-08-17T17:28:36.336Z,524
2022-08-17T17:29:16.911Z,524
2022-08-17T17:29:57.412Z,520
2022-08-17T17:30:37.931Z,520
2022-08-17T17:34:57.533Z,516
2022-08-17T17:35:38.046Z,508
2022-08-17T17:36:18.458Z,500
2022-08-17T17:36:58.929Z,492
2022-08-17T17:37:39.429Z,480
2022-08-17T17:38:19.868Z,472
2022-08-17T17:39:00.415Z,464
2022-08-17T17:39:40.973Z,464
2022-08-17T17:40:21.534Z,456
2022-08-17T17:41:02.311Z,452
2022-08-17T17:41:42.428Z,444
2022-08-17T17:48:27.412Z,404
2022-08-17T17:49:07.893Z,400
2022-08-17T17:49:48.382Z,396
2022-08-17T17:50:28.890Z,396
2022-08-17T17:51:09.398Z,392
2022-08-17T17:51:55.757Z,388
2022-08-17T17:52:30.479Z,384
2022-08-17T17:53:10.936Z,384
2022-08-17T17:53:51.443Z,380
2022-08-17T18:34:48.641Z,104
2022-08-17T18:35:28.136Z,100
2022-08-17T18:36:08.610Z,96
2022-08-17T18:36:49.118Z,92
2022-08-17T18:37:29.603Z,84
2022-08-17T18:38:10.058Z,80
2022-08-17T18:38:50.517Z,76
2022-08-17T18:39:31.063Z,76
2022-08-17T18:40:11.626Z,68
2022-08-17T18:40:52.114Z,68
2022-08-17T18:47:37.155Z,36
2022-08-17T18:48:17.647Z,32
2022-08-17T18:48:59.018Z,32
2022-08-17T18:49:38.665Z,32
2022-08-17T18:50:19.199Z,28
2022-08-17T18:50:59.691Z,28
2022-08-17T18:51:41.811Z,24
2022-08-17T18:52:20.635Z,24
2022-08-17T18:53:05.207Z,24
2022-08-17T18:53:41.655Z,20
2022-08-17T18:54:22.312Z,20
2022-08-17T19:01:07.313Z,8
2022-08-17T19:01:53.868Z,8
2022-08-17T19:02:44.074Z,4
2022-08-17T19:03:09.641Z,8
2022-08-17T19:03:50.127Z,4
2022-08-17T19:04:34.191Z,4
2022-08-17T19:05:11.104Z,8
2022-08-17T19:05:51.559Z,4
2022-08-17T19:06:32.027Z,4
2022-08-17T19:13:23.813Z,0
2022-08-17T19:13:57.767Z,0
2022-08-17T19:14:38.152Z,0
2022-08-17T19:15:19.067Z,0
2022-08-17T19:16:11.492Z,0
2022-08-17T19:16:40.990Z,0
2022-08-17T19:17:21.519Z,0
2022-08-17T19:22:08.112Z,0
2022-08-17T19:22:49.001Z,0
2022-08-17T19:23:29.328Z,0
2022-08-17T19:24:09.766Z,0
2022-08-17T19:24:54.387Z,0
2022-08-17T19:25:30.806Z,0